sensor_id;sensor_type;location;lat;lon;timestamp;P1;durP1;ratioP1;P2;durP2;ratioP2
75698;SDS011;64313;51.018;13.742;2022-11-14T00:05:00;15.73;;;8.85;;
75698;SDS011;64313;51.018;13.742;2022-11-14T00:07:44;16.63;;;8.93;;
75698;SDS011;64313;51.018;13.742;2022-11-14T00:10:29;15.50;;;8.68;;
75698;SDS011;64313;51.018;13.742;2022-11-14T00:15:58;17.23;;;9.25;;
75698;SDS011;64313;51.018;13.742;2022-11-14T00:18:42;15.38;;;8.73;;
75698;SDS011;64313;51.018;13.742;2022-11-14T00:21:25;17.17;;;8.48;;
75698;SDS011;64313;51.018;13.742;2022-11-14T00:24:09;17.70;;;8.73;;
75698;SDS011;64313;51.018;13.742;2022-11-14T00:26:53;16.17;;;8.25;;
75698;SDS011;64313;51.018;13.742;2022-11-14T00:29:37;18.58;;;8.77;;
75698;SDS011;64313;51.018;13.742;2022-11-14T00:32:21;16.50;;;8.13;;
75698;SDS011;64313;51.018;13.742;2022-11-14T00:35:05;15.50;;;8.63;;
75698;SDS011;64313;51.018;13.742;2022-11-14T00:37:51;17.13;;;8.60;;
75698;SDS011;64313;51.018;13.742;2022-11-14T00:43:19;12.52;;;6.97;;
75698;SDS011;64313;51.018;13.742;2022-11-14T00:46:03;15.82;;;8.15;;
75698;SDS011;64313;51.018;13.742;2022-11-14T00:48:47;14.05;;;8.00;;
75698;SDS011;64313;51.018;13.742;2022-11-14T00:54:15;14.25;;;7.57;;
75698;SDS011;64313;51.018;13.742;2022-11-14T00:56:59;15.20;;;6.93;;
75698;SDS011;64313;51.018;13.742;2022-11-14T00:59:43;14.75;;;7.68;;
75698;SDS011;64313;51.018;13.742;2022-11-14T01:05:10;12.50;;;7.10;;
75698;SDS011;64313;51.018;13.742;2022-11-14T01:10:42;14.13;;;7.75;;
75698;SDS011;64313;51.018;13.742;2022-11-14T01:13:30;16.02;;;7.85;;
75698;SDS011;64313;51.018;13.742;2022-11-14T01:16:14;14.73;;;7.78;;
75698;SDS011;64313;51.018;13.742;2022-11-14T01:18:58;14.00;;;7.85;;
75698;SDS011;64313;51.018;13.742;2022-11-14T01:21:42;17.17;;;7.88;;
75698;SDS011;64313;51.018;13.742;2022-11-14T01:24:26;17.25;;;8.07;;
75698;SDS011;64313;51.018;13.742;2022-11-14T01:27:10;15.80;;;8.25;;
75698;SDS011;64313;51.018;13.742;2022-11-14T01:29:54;17.30;;;8.95;;
75698;SDS011;64313;51.018;13.742;2022-11-14T01:32:38;16.73;;;7.97;;
75698;SDS011;64313;51.018;13.742;2022-11-14T01:35:22;16.20;;;8.65;;
75698;SDS011;64313;51.018;13.742;2022-11-14T01:38:05;16.25;;;8.43;;
75698;SDS011;64313;51.018;13.742;2022-11-14T01:40:49;14.27;;;8.05;;
75698;SDS011;64313;51.018;13.742;2022-11-14T01:43:34;15.07;;;8.00;;
75698;SDS011;64313;51.018;13.742;2022-11-14T01:46:30;14.77;;;7.70;;
75698;SDS011;64313;51.018;13.742;2022-11-14T01:52:06;15.88;;;8.18;;
75698;SDS011;64313;51.018;13.742;2022-11-14T01:54:55;16.75;;;8.45;;
75698;SDS011;64313;51.018;13.742;2022-11-14T01:57:43;14.98;;;7.82;;
75698;SDS011;64313;51.018;13.742;2022-11-14T02:00:30;15.65;;;8.10;;
75698;SDS011;64313;51.018;13.742;2022-11-14T02:06:00;14.48;;;7.60;;
75698;SDS011;64313;51.018;13.742;2022-11-14T02:08:45;15.00;;;7.50;;
75698;SDS011;64313;51.018;13.742;2022-11-14T02:11:32;15.40;;;7.78;;
75698;SDS011;64313;51.018;13.742;2022-11-14T02:14:19;13.88;;;7.28;;
75698;SDS011;64313;51.018;13.742;2022-11-14T02:17:03;14.68;;;7.82;;
75698;SDS011;64313;51.018;13.742;2022-11-14T02:19:49;18.17;;;8.63;;
75698;SDS011;64313;51.018;13.742;2022-11-14T02:22:38;14.27;;;7.13;;
75698;SDS011;64313;51.018;13.742;2022-11-14T02:25:24;16.08;;;7.82;;
75698;SDS011;64313;51.018;13.742;2022-11-14T02:28:08;13.55;;;7.20;;
75698;SDS011;64313;51.018;13.742;2022-11-14T02:30:53;14.27;;;7.80;;
75698;SDS011;64313;51.018;13.742;2022-11-14T02:36:21;13.73;;;6.80;;
75698;SDS011;64313;51.018;13.742;2022-11-14T02:41:49;13.55;;;7.38;;
75698;SDS011;64313;51.018;13.742;2022-11-14T02:44:33;15.55;;;8.23;;
75698;SDS011;64313;51.018;13.742;2022-11-14T02:47:17;14.95;;;7.22;;
75698;SDS011;64313;51.018;13.742;2022-11-14T02:52:45;14.25;;;7.32;;
75698;SDS011;64313;51.018;13.742;2022-11-14T02:55:29;14.10;;;7.60;;
75698;SDS011;64313;51.018;13.742;2022-11-14T03:00:57;15.57;;;7.40;;
75698;SDS011;64313;51.018;13.742;2022-11-14T03:03:41;15.45;;;8.02;;
75698;SDS011;64313;51.018;13.742;2022-11-14T03:09:09;15.38;;;7.68;;
75698;SDS011;64313;51.018;13.742;2022-11-14T03:11:52;15.73;;;7.80;;
75698;SDS011;64313;51.018;13.742;2022-11-14T03:14:36;15.77;;;8.68;;
75698;SDS011;64313;51.018;13.742;2022-11-14T03:17:20;18.50;;;8.90;;
75698;SDS011;64313;51.018;13.742;2022-11-14T03:20:07;16.98;;;8.52;;
75698;SDS011;64313;51.018;13.742;2022-11-14T03:22:51;17.35;;;8.63;;
75698;SDS011;64313;51.018;13.742;2022-11-14T03:25:35;16.77;;;9.07;;
75698;SDS011;64313;51.018;13.742;2022-11-14T03:28:19;15.02;;;8.35;;
75698;SDS011;64313;51.018;13.742;2022-11-14T03:33:48;18.75;;;9.18;;
75698;SDS011;64313;51.018;13.742;2022-11-14T03:39:16;15.98;;;8.20;;
75698;SDS011;64313;51.018;13.742;2022-11-14T03:44:44;15.35;;;8.43;;
75698;SDS011;64313;51.018;13.742;2022-11-14T03:50:12;15.27;;;8.38;;
75698;SDS011;64313;51.018;13.742;2022-11-14T03:52:56;17.08;;;9.10;;
75698;SDS011;64313;51.018;13.742;2022-11-14T03:58:25;16.27;;;8.60;;
75698;SDS011;64313;51.018;13.742;2022-11-14T04:01:09;16.27;;;8.32;;
75698;SDS011;64313;51.018;13.742;2022-11-14T04:03:53;17.33;;;8.52;;
75698;SDS011;64313;51.018;13.742;2022-11-14T04:06:38;17.20;;;8.90;;
75698;SDS011;64313;51.018;13.742;2022-11-14T04:12:06;16.98;;;8.10;;
75698;SDS011;64313;51.018;13.742;2022-11-14T04:17:33;14.20;;;8.40;;
75698;SDS011;64313;51.018;13.742;2022-11-14T04:20:18;15.85;;;8.27;;
75698;SDS011;64313;51.018;13.742;2022-11-14T04:23:01;16.35;;;8.68;;
75698;SDS011;64313;51.018;13.742;2022-11-14T04:28:29;18.40;;;8.30;;
75698;SDS011;64313;51.018;13.742;2022-11-14T04:33:57;16.48;;;7.90;;
75698;SDS011;64313;51.018;13.742;2022-11-14T04:36:41;17.75;;;9.82;;
75698;SDS011;64313;51.018;13.742;2022-11-14T04:42:09;16.10;;;7.95;;
75698;SDS011;64313;51.018;13.742;2022-11-14T04:47:37;16.55;;;8.85;;
75698;SDS011;64313;51.018;13.742;2022-11-14T04:53:05;18.10;;;8.35;;
75698;SDS011;64313;51.018;13.742;2022-11-14T04:55:49;17.13;;;9.18;;
75698;SDS011;64313;51.018;13.742;2022-11-14T04:58:33;17.52;;;9.30;;
75698;SDS011;64313;51.018;13.742;2022-11-14T05:04:00;15.35;;;8.23;;
75698;SDS011;64313;51.018;13.742;2022-11-14T05:06:44;14.90;;;8.38;;
75698;SDS011;64313;51.018;13.742;2022-11-14T05:12:12;17.15;;;8.93;;
75698;SDS011;64313;51.018;13.742;2022-11-14T05:14:56;15.50;;;8.15;;
75698;SDS011;64313;51.018;13.742;2022-11-14T05:17:40;15.25;;;8.05;;
75698;SDS011;64313;51.018;13.742;2022-11-14T05:20:24;15.45;;;8.60;;
75698;SDS011;64313;51.018;13.742;2022-11-14T05:26:07;15.68;;;8.52;;
75698;SDS011;64313;51.018;13.742;2022-11-14T05:28:52;14.85;;;8.30;;
75698;SDS011;64313;51.018;13.742;2022-11-14T05:34:20;14.68;;;8.05;;
75698;SDS011;64313;51.018;13.742;2022-11-14T05:37:04;14.68;;;8.18;;
75698;SDS011;64313;51.018;13.742;2022-11-14T05:42:32;15.98;;;8.85;;
75698;SDS011;64313;51.018;13.742;2022-11-14T05:45:16;14.65;;;8.82;;
75698;SDS011;64313;51.018;13.742;2022-11-14T05:48:00;14.48;;;8.27;;
75698;SDS011;64313;51.018;13.742;2022-11-14T05:53:28;14.18;;;8.25;;
75698;SDS011;64313;51.018;13.742;2022-11-14T05:56:14;15.30;;;8.68;;
75698;SDS011;64313;51.018;13.742;2022-11-14T06:01:42;16.63;;;8.95;;
75698;SDS011;64313;51.018;13.742;2022-11-14T06:04:26;16.70;;;8.30;;
75698;SDS011;64313;51.018;13.742;2022-11-14T06:09:54;15.38;;;8.38;;
75698;SDS011;64313;51.018;13.742;2022-11-14T06:15:22;17.02;;;8.68;;
75698;SDS011;64313;51.018;13.742;2022-11-14T06:18:05;16.13;;;8.68;;
75698;SDS011;64313;51.018;13.742;2022-11-14T06:20:49;16.40;;;9.55;;
75698;SDS011;64313;51.018;13.742;2022-11-14T06:26:21;17.27;;;9.35;;
75698;SDS011;64313;51.018;13.742;2022-11-14T06:29:08;18.05;;;9.90;;
75698;SDS011;64313;51.018;13.742;2022-11-14T06:31:52;17.83;;;10.00;;
75698;SDS011;64313;51.018;13.742;2022-11-14T06:37:20;19.80;;;9.65;;
75698;SDS011;64313;51.018;13.742;2022-11-14T06:42:48;17.80;;;9.85;;
75698;SDS011;64313;51.018;13.742;2022-11-14T06:45:32;18.67;;;10.70;;
75698;SDS011;64313;51.018;13.742;2022-11-14T06:48:16;20.08;;;9.93;;
75698;SDS011;64313;51.018;13.742;2022-11-14T06:53:45;18.30;;;9.35;;
75698;SDS011;64313;51.018;13.742;2022-11-14T06:59:12;19.70;;;10.23;;
75698;SDS011;64313;51.018;13.742;2022-11-14T07:01:57;21.08;;;10.13;;
75698;SDS011;64313;51.018;13.742;2022-11-14T07:04:42;18.02;;;10.40;;
75698;SDS011;64313;51.018;13.742;2022-11-14T07:07:26;18.15;;;10.07;;
75698;SDS011;64313;51.018;13.742;2022-11-14T07:10:10;19.05;;;10.57;;
75698;SDS011;64313;51.018;13.742;2022-11-14T07:12:53;20.60;;;10.27;;
75698;SDS011;64313;51.018;13.742;2022-11-14T07:18:21;17.77;;;9.35;;
75698;SDS011;64313;51.018;13.742;2022-11-14T07:23:49;18.60;;;10.13;;
75698;SDS011;64313;51.018;13.742;2022-11-14T07:29:17;18.73;;;9.85;;
75698;SDS011;64313;51.018;13.742;2022-11-14T07:34:44;19.58;;;9.93;;
75698;SDS011;64313;51.018;13.742;2022-11-14T07:40:12;17.95;;;10.07;;
75698;SDS011;64313;51.018;13.742;2022-11-14T07:43:00;18.60;;;10.43;;
75698;SDS011;64313;51.018;13.742;2022-11-14T07:45:44;18.13;;;10.45;;
75698;SDS011;64313;51.018;13.742;2022-11-14T07:51:14;18.35;;;9.70;;
75698;SDS011;64313;51.018;13.742;2022-11-14T07:54:00;19.42;;;10.27;;
75698;SDS011;64313;51.018;13.742;2022-11-14T07:56:44;18.48;;;10.70;;
75698;SDS011;64313;51.018;13.742;2022-11-14T08:02:12;19.98;;;10.35;;
75698;SDS011;64313;51.018;13.742;2022-11-14T08:04:57;18.83;;;10.70;;
75698;SDS011;64313;51.018;13.742;2022-11-14T08:07:41;19.75;;;10.57;;
75698;SDS011;64313;51.018;13.742;2022-11-14T08:13:09;19.25;;;10.15;;
75698;SDS011;64313;51.018;13.742;2022-11-14T08:15:54;21.27;;;11.18;;
75698;SDS011;64313;51.018;13.742;2022-11-14T08:18:38;21.15;;;10.15;;
75698;SDS011;64313;51.018;13.742;2022-11-14T08:21:22;17.90;;;10.77;;
75698;SDS011;64313;51.018;13.742;2022-11-14T08:26:50;19.25;;;10.00;;
75698;SDS011;64313;51.018;13.742;2022-11-14T08:29:34;18.50;;;10.25;;
75698;SDS011;64313;51.018;13.742;2022-11-14T08:35:02;18.48;;;9.90;;
75698;SDS011;64313;51.018;13.742;2022-11-14T08:37:47;17.73;;;9.80;;
75698;SDS011;64313;51.018;13.742;2022-11-14T08:43:14;20.20;;;10.98;;
75698;SDS011;64313;51.018;13.742;2022-11-14T08:45:59;18.35;;;10.07;;
75698;SDS011;64313;51.018;13.742;2022-11-14T08:48:46;18.42;;;9.90;;
75698;SDS011;64313;51.018;13.742;2022-11-14T08:54:14;19.10;;;9.65;;
75698;SDS011;64313;51.018;13.742;2022-11-14T08:56:58;17.35;;;9.93;;
75698;SDS011;64313;51.018;13.742;2022-11-14T08:59:42;17.92;;;9.68;;
75698;SDS011;64313;51.018;13.742;2022-11-14T09:02:26;18.25;;;9.77;;
75698;SDS011;64313;51.018;13.742;2022-11-14T09:05:10;18.75;;;10.60;;
75698;SDS011;64313;51.018;13.742;2022-11-14T09:10:38;18.15;;;9.63;;
75698;SDS011;64313;51.018;13.742;2022-11-14T09:13:22;17.23;;;9.80;;
75698;SDS011;64313;51.018;13.742;2022-11-14T09:16:06;18.55;;;10.10;;
75698;SDS011;64313;51.018;13.742;2022-11-14T09:18:50;19.65;;;9.57;;
75698;SDS011;64313;51.018;13.742;2022-11-14T09:21:34;18.52;;;10.68;;
75698;SDS011;64313;51.018;13.742;2022-11-14T09:24:18;18.13;;;9.90;;
75698;SDS011;64313;51.018;13.742;2022-11-14T09:27:02;18.30;;;10.07;;
75698;SDS011;64313;51.018;13.742;2022-11-14T09:32:30;16.83;;;8.90;;
75698;SDS011;64313;51.018;13.742;2022-11-14T09:35:14;17.58;;;10.00;;
75698;SDS011;64313;51.018;13.742;2022-11-14T09:38:02;16.27;;;8.93;;
75698;SDS011;64313;51.018;13.742;2022-11-14T09:40:56;18.23;;;9.50;;
75698;SDS011;64313;51.018;13.742;2022-11-14T09:47:09;17.02;;;9.63;;
75698;SDS011;64313;51.018;13.742;2022-11-14T09:50:01;17.88;;;10.18;;
75698;SDS011;64313;51.018;13.742;2022-11-14T09:52:56;18.33;;;10.30;;
75698;SDS011;64313;51.018;13.742;2022-11-14T09:55:43;18.75;;;9.90;;
75698;SDS011;64313;51.018;13.742;2022-11-14T09:58:26;16.10;;;8.70;;
75698;SDS011;64313;51.018;13.742;2022-11-14T10:01:56;18.67;;;10.38;;
75698;SDS011;64313;51.018;13.742;2022-11-14T10:25:49;18.95;;;10.60;;
75698;SDS011;64313;51.018;13.742;2022-11-14T10:35:42;17.05;;;9.30;;
75698;SDS011;64313;51.018;13.742;2022-11-14T10:42:13;16.52;;;8.70;;
75698;SDS011;64313;51.018;13.742;2022-11-14T10:48:43;14.13;;;8.23;;
75698;SDS011;64313;51.018;13.742;2022-11-14T10:51:34;16.02;;;9.07;;
75698;SDS011;64313;51.018;13.742;2022-11-14T10:54:24;18.42;;;8.98;;
75698;SDS011;64313;51.018;13.742;2022-11-14T10:57:16;17.20;;;9.25;;
75698;SDS011;64313;51.018;13.742;2022-11-14T11:00:05;19.92;;;9.10;;
75698;SDS011;64313;51.018;13.742;2022-11-14T11:02:56;17.50;;;9.18;;
75698;SDS011;64313;51.018;13.742;2022-11-14T11:05:45;16.40;;;8.38;;
75698;SDS011;64313;51.018;13.742;2022-11-14T11:08:39;16.10;;;9.38;;
75698;SDS011;64313;51.018;13.742;2022-11-14T11:11:45;17.40;;;9.38;;
75698;SDS011;64313;51.018;13.742;2022-11-14T11:14:36;18.13;;;9.02;;
75698;SDS011;64313;51.018;13.742;2022-11-14T11:17:20;18.55;;;9.50;;
75698;SDS011;64313;51.018;13.742;2022-11-14T11:26:03;17.23;;;9.50;;
75698;SDS011;64313;51.018;13.742;2022-11-14T11:29:03;18.83;;;10.32;;
75698;SDS011;64313;51.018;13.742;2022-11-14T11:31:54;18.10;;;9.57;;
75698;SDS011;64313;51.018;13.742;2022-11-14T11:34:40;16.85;;;9.38;;
75698;SDS011;64313;51.018;13.742;2022-11-14T11:37:29;17.45;;;9.70;;
75698;SDS011;64313;51.018;13.742;2022-11-14T11:40:21;17.55;;;9.45;;
75698;SDS011;64313;51.018;13.742;2022-11-14T11:43:14;17.27;;;10.23;;
75698;SDS011;64313;51.018;13.742;2022-11-14T11:55:14;16.83;;;9.13;;
75698;SDS011;64313;51.018;13.742;2022-11-14T11:58:18;16.00;;;9.55;;
75698;SDS011;64313;51.018;13.742;2022-11-14T12:01:09;15.68;;;9.18;;
75698;SDS011;64313;51.018;13.742;2022-11-14T12:03:54;14.63;;;8.68;;
75698;SDS011;64313;51.018;13.742;2022-11-14T12:06:43;14.57;;;8.48;;
75698;SDS011;64313;51.018;13.742;2022-11-14T12:09:36;16.20;;;8.60;;
75698;SDS011;64313;51.018;13.742;2022-11-14T12:15:49;16.40;;;8.85;;
75698;SDS011;64313;51.018;13.742;2022-11-14T12:18:53;17.02;;;8.43;;
75698;SDS011;64313;51.018;13.742;2022-11-14T12:28:18;17.50;;;9.27;;
75698;SDS011;64313;51.018;13.742;2022-11-14T12:31:14;17.05;;;8.95;;
75698;SDS011;64313;51.018;13.742;2022-11-14T12:34:22;17.95;;;9.80;;
75698;SDS011;64313;51.018;13.742;2022-11-14T12:37:07;17.48;;;9.48;;
75698;SDS011;64313;51.018;13.742;2022-11-14T12:39:57;17.17;;;9.07;;
75698;SDS011;64313;51.018;13.742;2022-11-14T12:42:48;17.33;;;8.88;;
75698;SDS011;64313;51.018;13.742;2022-11-14T12:48:27;17.55;;;9.55;;
75698;SDS011;64313;51.018;13.742;2022-11-14T12:54:08;15.80;;;9.00;;
75698;SDS011;64313;51.018;13.742;2022-11-14T12:57:27;15.95;;;9.10;;
75698;SDS011;64313;51.018;13.742;2022-11-14T13:00:31;15.85;;;8.98;;
75698;SDS011;64313;51.018;13.742;2022-11-14T13:03:39;14.77;;;8.70;;
75698;SDS011;64313;51.018;13.742;2022-11-14T13:06:38;15.35;;;8.98;;
75698;SDS011;64313;51.018;13.742;2022-11-14T13:09:33;16.35;;;8.88;;
75698;SDS011;64313;51.018;13.742;2022-11-14T13:12:33;14.15;;;9.10;;
75698;SDS011;64313;51.018;13.742;2022-11-14T13:15:45;15.88;;;9.30;;
75698;SDS011;64313;51.018;13.742;2022-11-14T13:19:10;15.18;;;8.95;;
75698;SDS011;64313;51.018;13.742;2022-11-14T13:22:36;16.90;;;9.50;;
75698;SDS011;64313;51.018;13.742;2022-11-14T13:25:22;14.05;;;8.32;;
75698;SDS011;64313;51.018;13.742;2022-11-14T13:31:47;15.63;;;9.45;;
75698;SDS011;64313;51.018;13.742;2022-11-14T13:40:27;18.25;;;9.48;;
75698;SDS011;64313;51.018;13.742;2022-11-14T13:43:19;15.02;;;9.13;;
75698;SDS011;64313;51.018;13.742;2022-11-14T13:46:16;15.85;;;8.43;;
75698;SDS011;64313;51.018;13.742;2022-11-14T13:52:39;13.73;;;8.10;;
75698;SDS011;64313;51.018;13.742;2022-11-14T13:55:37;14.50;;;8.27;;
75698;SDS011;64313;51.018;13.742;2022-11-14T14:05:03;15.80;;;8.73;;
75698;SDS011;64313;51.018;13.742;2022-11-14T14:11:06;15.63;;;8.93;;
75698;SDS011;64313;51.018;13.742;2022-11-14T14:14:01;15.23;;;8.75;;
75698;SDS011;64313;51.018;13.742;2022-11-14T14:17:11;15.85;;;8.68;;
75698;SDS011;64313;51.018;13.742;2022-11-14T14:20:18;15.55;;;8.35;;
75698;SDS011;64313;51.018;13.742;2022-11-14T14:26:33;16.50;;;9.02;;
75698;SDS011;64313;51.018;13.742;2022-11-14T14:29:24;13.57;;;8.10;;
75698;SDS011;64313;51.018;13.742;2022-11-14T14:32:15;15.52;;;8.95;;
75698;SDS011;64313;51.018;13.742;2022-11-14T14:38:11;15.05;;;8.88;;
75698;SDS011;64313;51.018;13.742;2022-11-14T14:41:04;16.23;;;9.70;;
75698;SDS011;64313;51.018;13.742;2022-11-14T14:43:50;15.73;;;9.32;;
75698;SDS011;64313;51.018;13.742;2022-11-14T14:46:37;17.40;;;9.55;;
75698;SDS011;64313;51.018;13.742;2022-11-14T14:49:25;16.92;;;9.50;;
75698;SDS011;64313;51.018;13.742;2022-11-14T14:52:53;17.55;;;9.85;;
75698;SDS011;64313;51.018;13.742;2022-11-14T14:55:25;16.38;;;9.65;;
75698;SDS011;64313;51.018;13.742;2022-11-14T15:01:11;16.17;;;9.02;;
75698;SDS011;64313;51.018;13.742;2022-11-14T15:04:15;17.00;;;9.57;;
75698;SDS011;64313;51.018;13.742;2022-11-14T15:07:00;15.68;;;9.73;;
75698;SDS011;64313;51.018;13.742;2022-11-14T15:09:50;17.98;;;9.60;;
75698;SDS011;64313;51.018;13.742;2022-11-14T15:12:37;15.98;;;9.70;;
75698;SDS011;64313;51.018;13.742;2022-11-14T15:15:23;17.33;;;9.60;;
75698;SDS011;64313;51.018;13.742;2022-11-14T15:18:13;16.40;;;9.43;;
75698;SDS011;64313;51.018;13.742;2022-11-14T15:21:06;17.50;;;10.50;;
75698;SDS011;64313;51.018;13.742;2022-11-14T15:23:57;17.88;;;10.43;;
75698;SDS011;64313;51.018;13.742;2022-11-14T15:27:04;18.17;;;10.30;;
75698;SDS011;64313;51.018;13.742;2022-11-14T15:29:56;17.48;;;10.98;;
75698;SDS011;64313;51.018;13.742;2022-11-14T15:32:50;18.80;;;10.60;;
75698;SDS011;64313;51.018;13.742;2022-11-14T15:35:42;19.05;;;11.07;;
75698;SDS011;64313;51.018;13.742;2022-11-14T15:41:14;20.45;;;9.90;;
75698;SDS011;64313;51.018;13.742;2022-11-14T15:44:03;19.70;;;9.98;;
75698;SDS011;64313;51.018;13.742;2022-11-14T15:46:48;20.35;;;11.02;;
75698;SDS011;64313;51.018;13.742;2022-11-14T15:49:32;18.73;;;10.43;;
75698;SDS011;64313;51.018;13.742;2022-11-14T15:52:22;18.38;;;10.52;;
75698;SDS011;64313;51.018;13.742;2022-11-14T15:55:14;16.48;;;9.48;;
75698;SDS011;64313;51.018;13.742;2022-11-14T15:58:02;18.77;;;10.85;;
75698;SDS011;64313;51.018;13.742;2022-11-14T16:00:48;19.08;;;10.68;;
75698;SDS011;64313;51.018;13.742;2022-11-14T16:03:33;18.15;;;10.10;;
75698;SDS011;64313;51.018;13.742;2022-11-14T16:09:01;17.58;;;9.75;;
75698;SDS011;64313;51.018;13.742;2022-11-14T16:14:29;19.45;;;10.20;;
75698;SDS011;64313;51.018;13.742;2022-11-14T16:17:13;17.65;;;9.65;;
75698;SDS011;64313;51.018;13.742;2022-11-14T16:19:59;21.40;;;11.75;;
75698;SDS011;64313;51.018;13.742;2022-11-14T16:25:29;18.92;;;10.60;;
75698;SDS011;64313;51.018;13.742;2022-11-14T16:28:14;18.85;;;10.05;;
75698;SDS011;64313;51.018;13.742;2022-11-14T16:30:58;17.67;;;10.20;;
75698;SDS011;64313;51.018;13.742;2022-11-14T16:33:42;21.83;;;11.48;;
75698;SDS011;64313;51.018;13.742;2022-11-14T16:36:26;19.65;;;10.85;;
75698;SDS011;64313;51.018;13.742;2022-11-14T16:41:58;17.02;;;9.82;;
75698;SDS011;64313;51.018;13.742;2022-11-14T16:44:44;19.90;;;11.35;;
75698;SDS011;64313;51.018;13.742;2022-11-14T16:47:28;19.67;;;11.35;;
75698;SDS011;64313;51.018;13.742;2022-11-14T16:50:15;19.65;;;10.98;;
75698;SDS011;64313;51.018;13.742;2022-11-14T16:52:59;18.67;;;10.80;;
75698;SDS011;64313;51.018;13.742;2022-11-14T16:55:43;21.30;;;12.02;;
75698;SDS011;64313;51.018;13.742;2022-11-14T17:01:13;18.77;;;10.70;;
75698;SDS011;64313;51.018;13.742;2022-11-14T17:04:06;19.83;;;11.07;;
75698;SDS011;64313;51.018;13.742;2022-11-14T17:06:50;22.05;;;11.43;;
75698;SDS011;64313;51.018;13.742;2022-11-14T17:12:18;19.90;;;10.73;;
75698;SDS011;64313;51.018;13.742;2022-11-14T17:15:02;23.48;;;11.48;;
75698;SDS011;64313;51.018;13.742;2022-11-14T17:20:32;21.25;;;12.00;;
75698;SDS011;64313;51.018;13.742;2022-11-14T17:23:16;21.13;;;11.95;;
75698;SDS011;64313;51.018;13.742;2022-11-14T17:26:04;20.50;;;12.25;;
75698;SDS011;64313;51.018;13.742;2022-11-14T17:28:50;21.98;;;12.95;;
75698;SDS011;64313;51.018;13.742;2022-11-14T17:31:34;22.45;;;12.52;;
75698;SDS011;64313;51.018;13.742;2022-11-14T17:34:18;26.00;;;14.20;;
75698;SDS011;64313;51.018;13.742;2022-11-14T17:39:46;22.98;;;13.80;;
75698;SDS011;64313;51.018;13.742;2022-11-14T17:45:14;24.60;;;13.13;;
75698;SDS011;64313;51.018;13.742;2022-11-14T17:47:58;23.13;;;12.95;;
75698;SDS011;64313;51.018;13.742;2022-11-14T17:50:42;21.75;;;12.30;;
75698;SDS011;64313;51.018;13.742;2022-11-14T17:56:17;23.23;;;12.90;;
75698;SDS011;64313;51.018;13.742;2022-11-14T17:59:02;22.25;;;13.55;;
75698;SDS011;64313;51.018;13.742;2022-11-14T18:01:46;24.75;;;14.10;;
75698;SDS011;64313;51.018;13.742;2022-11-14T18:04:30;24.65;;;14.40;;
75698;SDS011;64313;51.018;13.742;2022-11-14T18:07:14;25.92;;;14.60;;
75698;SDS011;64313;51.018;13.742;2022-11-14T18:09:58;24.23;;;13.68;;
75698;SDS011;64313;51.018;13.742;2022-11-14T18:12:42;23.45;;;14.05;;
75698;SDS011;64313;51.018;13.742;2022-11-14T18:15:26;24.63;;;14.07;;
75698;SDS011;64313;51.018;13.742;2022-11-14T18:18:10;24.00;;;15.10;;
75698;SDS011;64313;51.018;13.742;2022-11-14T18:20:54;23.92;;;13.60;;
75698;SDS011;64313;51.018;13.742;2022-11-14T18:26:22;22.83;;;13.85;;
75698;SDS011;64313;51.018;13.742;2022-11-14T18:29:10;26.20;;;14.82;;
75698;SDS011;64313;51.018;13.742;2022-11-14T18:31:54;25.55;;;14.30;;
75698;SDS011;64313;51.018;13.742;2022-11-14T18:34:38;25.08;;;14.43;;
75698;SDS011;64313;51.018;13.742;2022-11-14T18:37:23;24.02;;;14.18;;
75698;SDS011;64313;51.018;13.742;2022-11-14T18:40:07;22.70;;;14.00;;
75698;SDS011;64313;51.018;13.742;2022-11-14T18:42:54;25.63;;;14.38;;
75698;SDS011;64313;51.018;13.742;2022-11-14T18:45:38;26.33;;;15.32;;
75698;SDS011;64313;51.018;13.742;2022-11-14T18:48:22;25.70;;;15.20;;
75698;SDS011;64313;51.018;13.742;2022-11-14T18:51:09;24.98;;;15.50;;
75698;SDS011;64313;51.018;13.742;2022-11-14T18:53:55;24.15;;;14.68;;
75698;SDS011;64313;51.018;13.742;2022-11-14T18:56:41;22.60;;;14.88;;
75698;SDS011;64313;51.018;13.742;2022-11-14T18:59:25;24.83;;;14.52;;
75698;SDS011;64313;51.018;13.742;2022-11-14T19:02:10;23.10;;;13.88;;
75698;SDS011;64313;51.018;13.742;2022-11-14T19:04:54;25.27;;;14.82;;
75698;SDS011;64313;51.018;13.742;2022-11-14T19:07:37;23.80;;;15.02;;
75698;SDS011;64313;51.018;13.742;2022-11-14T19:10:21;22.35;;;14.27;;
75698;SDS011;64313;51.018;13.742;2022-11-14T19:13:05;24.88;;;15.02;;
75698;SDS011;64313;51.018;13.742;2022-11-14T19:15:50;23.45;;;14.18;;
75698;SDS011;64313;51.018;13.742;2022-11-14T19:18:33;25.27;;;14.75;;
75698;SDS011;64313;51.018;13.742;2022-11-14T19:21:18;25.95;;;14.95;;
75698;SDS011;64313;51.018;13.742;2022-11-14T19:26:45;24.15;;;15.07;;
75698;SDS011;64313;51.018;13.742;2022-11-14T19:29:29;24.35;;;14.85;;
75698;SDS011;64313;51.018;13.742;2022-11-14T19:32:13;28.73;;;16.23;;
75698;SDS011;64313;51.018;13.742;2022-11-14T19:34:57;23.13;;;14.57;;
75698;SDS011;64313;51.018;13.742;2022-11-14T19:37:41;25.00;;;14.93;;
75698;SDS011;64313;51.018;13.742;2022-11-14T19:40:25;24.88;;;15.15;;
75698;SDS011;64313;51.018;13.742;2022-11-14T19:43:10;24.08;;;15.20;;
75698;SDS011;64313;51.018;13.742;2022-11-14T19:45:58;24.33;;;15.30;;
75698;SDS011;64313;51.018;13.742;2022-11-14T19:48:43;24.30;;;15.32;;
75698;SDS011;64313;51.018;13.742;2022-11-14T19:51:27;24.75;;;15.13;;
75698;SDS011;64313;51.018;13.742;2022-11-14T19:54:12;23.45;;;14.75;;
75698;SDS011;64313;51.018;13.742;2022-11-14T19:56:56;31.08;;;18.17;;
75698;SDS011;64313;51.018;13.742;2022-11-14T19:59:40;23.70;;;14.93;;
75698;SDS011;64313;51.018;13.742;2022-11-14T20:02:24;25.00;;;15.57;;
75698;SDS011;64313;51.018;13.742;2022-11-14T20:05:08;24.70;;;15.60;;
75698;SDS011;64313;51.018;13.742;2022-11-14T20:07:52;24.55;;;14.52;;
75698;SDS011;64313;51.018;13.742;2022-11-14T20:10:36;23.55;;;14.75;;
75698;SDS011;64313;51.018;13.742;2022-11-14T20:13:31;24.30;;;14.90;;
75698;SDS011;64313;51.018;13.742;2022-11-14T20:16:18;24.98;;;15.05;;
75698;SDS011;64313;51.018;13.742;2022-11-14T20:19:06;26.58;;;15.52;;
75698;SDS011;64313;51.018;13.742;2022-11-14T20:24:34;25.20;;;16.05;;
75698;SDS011;64313;51.018;13.742;2022-11-14T20:30:02;29.95;;;15.65;;
75698;SDS011;64313;51.018;13.742;2022-11-14T20:35:29;44.47;;;18.92;;
75698;SDS011;64313;51.018;13.742;2022-11-14T20:38:17;37.90;;;17.65;;
75698;SDS011;64313;51.018;13.742;2022-11-14T20:43:45;40.97;;;18.17;;
75698;SDS011;64313;51.018;13.742;2022-11-14T20:46:29;43.53;;;19.38;;
75698;SDS011;64313;51.018;13.742;2022-11-14T20:51:56;34.95;;;16.55;;
75698;SDS011;64313;51.018;13.742;2022-11-14T20:57:24;30.70;;;15.52;;
75698;SDS011;64313;51.018;13.742;2022-11-14T21:02:53;32.25;;;15.68;;
75698;SDS011;64313;51.018;13.742;2022-11-14T21:08:22;26.85;;;14.75;;
75698;SDS011;64313;51.018;13.742;2022-11-14T21:11:07;28.05;;;15.02;;
75698;SDS011;64313;51.018;13.742;2022-11-14T21:13:54;26.13;;;15.48;;
75698;SDS011;64313;51.018;13.742;2022-11-14T21:16:41;23.50;;;14.48;;